createdAt,value
2018-11-23T00:00:18.525Z,32.43
2018-11-23T00:02:47.864Z,29.87
2018-11-23T00:05:16.424Z,32.43
2018-11-23T00:07:45.142Z,30.47
2018-11-23T00:10:15.068Z,27.87
2018-11-23T00:12:43.924Z,30.27
2018-11-23T00:15:13.889Z,32.50
2018-11-23T00:17:42.504Z,32.63
2018-11-23T00:20:14.479Z,34.03
2018-11-23T00:22:42.980Z,41.73
2018-11-23T00:25:13.801Z,28.77
2018-11-23T00:27:42.425Z,29.70
2018-11-23T00:30:12.943Z,29.03
2018-11-23T00:32:41.621Z,26.53
2018-11-23T00:35:12.218Z,27.43
2018-11-23T00:37:40.912Z,34.07
2018-11-23T00:40:11.935Z,31.87
2018-11-23T00:42:40.781Z,28.47
2018-11-23T00:45:11.337Z,29.37
2018-11-23T00:47:39.843Z,30.23
2018-11-23T00:50:10.841Z,30.20
2018-11-23T00:52:40.047Z,31.43
2018-11-23T00:55:10.374Z,31.73
2018-11-23T00:57:39.347Z,33.07
2018-11-23T01:00:11.693Z,34.30
2018-11-23T01:02:40.254Z,31.87
2018-11-23T01:05:09.918Z,29.90
2018-11-23T01:07:38.501Z,31.37
2018-11-23T01:10:08.846Z,34.27
2018-11-23T01:12:38.203Z,31.27
2018-11-23T01:15:07.206Z,30.27
2018-11-23T01:17:36.152Z,32.60
2018-11-23T01:20:05.405Z,29.30
2018-11-23T01:22:34.080Z,32.20
2018-11-23T01:25:02.860Z,31.67
2018-11-23T01:27:31.479Z,26.57
2018-11-23T01:30:00.074Z,28.77
2018-11-23T01:32:28.921Z,30.60
2018-11-23T01:34:57.708Z,26.77
2018-11-23T01:37:26.424Z,30.77
2018-11-23T01:39:55.184Z,27.00
2018-11-23T01:42:23.885Z,24.33
2018-11-23T01:44:52.722Z,29.23
2018-11-23T01:47:22.833Z,30.13
2018-11-23T01:49:51.397Z,31.20
2018-11-23T01:52:19.977Z,28.37
2018-11-23T01:54:48.618Z,27.33
2018-11-23T01:57:17.562Z,27.80
2018-11-23T01:59:46.161Z,27.97
2018-11-23T02:02:14.653Z,27.83
2018-11-23T02:04:43.191Z,28.27
2018-11-23T02:07:11.804Z,26.47
2018-11-23T02:09:40.277Z,27.70
2018-11-23T02:12:08.836Z,28.30
2018-11-23T02:14:37.393Z,33.53
2018-11-23T02:17:05.925Z,31.00
2018-11-23T02:19:34.438Z,33.27
2018-11-23T02:22:03.268Z,29.37
2018-11-23T02:24:31.934Z,26.33
2018-11-23T02:27:00.602Z,28.90
2018-11-23T02:29:29.329Z,28.30
2018-11-23T02:31:57.824Z,30.50
2018-11-23T02:34:26.354Z,32.47
2018-11-23T02:36:54.946Z,32.57
2018-11-23T02:39:23.496Z,26.77
2018-11-23T02:41:52.156Z,33.87
2018-11-23T02:44:20.729Z,29.57
2018-11-23T02:46:49.413Z,32.93
2018-11-23T02:49:18.067Z,26.73
2018-11-23T02:51:46.766Z,28.00
2018-11-23T02:54:15.271Z,29.47
2018-11-23T02:56:45.877Z,28.53
2018-11-23T02:59:14.927Z,29.53
2018-11-23T03:01:43.402Z,27.93
2018-11-23T03:04:12.401Z,23.73
2018-11-23T03:06:41.009Z,22.30
2018-11-23T03:09:10.470Z,24.20
2018-11-23T03:11:40.465Z,20.97
2018-11-23T03:14:09.595Z,24.03
2018-11-23T03:16:38.536Z,19.53
2018-11-23T03:19:07.732Z,20.17
2018-11-23T03:21:36.328Z,19.57
2018-11-23T03:24:04.933Z,21.37
2018-11-23T03:26:33.573Z,23.93
2018-11-23T03:29:02.234Z,27.27
2018-11-23T03:31:30.721Z,25.10
2018-11-23T03:33:59.360Z,24.70
2018-11-23T03:36:28.039Z,29.23
2018-11-23T03:38:56.680Z,24.53
2018-11-23T03:41:25.192Z,26.37
2018-11-23T03:43:53.975Z,24.23
2018-11-23T03:46:22.631Z,24.17
2018-11-23T03:48:51.132Z,27.90
2018-11-23T03:51:19.951Z,28.10
2018-11-23T03:53:48.495Z,25.97
2018-11-23T03:56:16.993Z,24.43
2018-11-23T03:58:45.589Z,24.13
2018-11-23T04:01:14.243Z,24.43
2018-11-23T04:03:42.907Z,23.63
2018-11-23T04:06:11.441Z,23.13
2018-11-23T04:08:40.083Z,28.17
2018-11-23T04:11:08.873Z,28.90
2018-11-23T04:13:37.425Z,27.23
2018-11-23T04:16:06.085Z,23.53
2018-11-23T04:18:34.769Z,25.13
2018-11-23T04:21:04.000Z,26.10
2018-11-23T04:23:33.596Z,26.23
2018-11-23T04:26:02.315Z,26.10
2018-11-23T04:28:31.050Z,24.57
2018-11-23T04:30:59.560Z,25.57
2018-11-23T04:33:28.105Z,25.87
2018-11-23T04:35:57.327Z,26.27
2018-11-23T04:38:25.989Z,23.37
2018-11-23T04:40:54.827Z,22.67
2018-11-23T04:43:23.492Z,21.97
2018-11-23T04:45:52.105Z,22.67
2018-11-23T04:48:20.847Z,23.13
2018-11-23T04:50:49.452Z,25.43
2018-11-23T04:53:18.787Z,21.20
2018-11-23T04:55:47.334Z,21.20
2018-11-23T04:58:15.983Z,24.53
2018-11-23T05:00:44.672Z,22.47
2018-11-23T05:03:13.388Z,22.93
2018-11-23T05:05:41.953Z,26.07
2018-11-23T05:08:10.645Z,22.40
2018-11-23T05:10:39.294Z,23.50
2018-11-23T05:13:07.997Z,20.57
2018-11-23T05:15:36.662Z,21.73
2018-11-23T05:18:05.542Z,31.17
2018-11-23T05:20:34.073Z,39.20
2018-11-23T05:23:02.572Z,39.00
2018-11-23T05:25:31.054Z,29.67
2018-11-23T05:27:59.613Z,25.13
2018-11-23T05:30:28.253Z,24.57
2018-11-23T05:32:57.670Z,28.00
2018-11-23T05:35:26.233Z,28.23
2018-11-23T05:37:55.053Z,28.23
2018-11-23T05:40:23.724Z,21.37
2018-11-23T05:42:52.303Z,25.37
2018-11-23T05:45:22.073Z,22.53
2018-11-23T05:47:50.849Z,22.00
2018-11-23T05:50:22.033Z,22.27
2018-11-23T05:52:50.585Z,21.43
2018-11-23T05:55:19.246Z,24.80
2018-11-23T05:57:48.017Z,26.10
2018-11-23T06:00:19.529Z,22.33
2018-11-23T06:02:48.350Z,27.50
2018-11-23T06:05:16.978Z,25.77
2018-11-23T06:07:45.848Z,25.90
2018-11-23T06:10:15.751Z,26.10
2018-11-23T06:12:44.277Z,25.47
2018-11-23T06:15:15.237Z,25.10
2018-11-23T06:17:44.445Z,27.20
2018-11-23T06:20:15.054Z,26.40
2018-11-23T06:22:45.002Z,28.97
2018-11-23T06:25:18.624Z,24.30
2018-11-23T06:27:47.122Z,27.20
2018-11-23T06:30:15.740Z,40.50
2018-11-23T06:32:55.537Z,38.50
2018-11-23T06:35:24.172Z,32.63
2018-11-23T06:37:52.800Z,35.63
2018-11-23T06:40:21.358Z,32.03
2018-11-23T06:42:49.891Z,29.80
2018-11-23T06:45:18.633Z,32.43
2018-11-23T06:47:47.146Z,28.63
2018-11-23T06:50:15.998Z,28.60
2018-11-23T06:52:44.653Z,28.97
2018-11-23T06:55:13.346Z,23.87
2018-11-23T06:57:42.337Z,26.20
2018-11-23T07:00:14.986Z,25.77
2018-11-23T07:02:44.651Z,27.43
2018-11-23T07:05:13.753Z,23.23
2018-11-23T07:07:42.369Z,23.80
2018-11-23T07:10:11.690Z,24.27
2018-11-23T07:12:40.830Z,24.23
2018-11-23T07:15:11.024Z,26.70
2018-11-23T07:17:40.389Z,24.60
2018-11-23T07:20:10.463Z,26.67
2018-11-23T07:22:39.802Z,25.00
2018-11-23T07:25:09.666Z,23.93
2018-11-23T07:27:38.335Z,28.13
2018-11-23T07:30:20.193Z,28.07
2018-11-23T07:32:48.979Z,24.50
2018-11-23T07:35:17.754Z,26.97
2018-11-23T07:37:46.586Z,27.47
2018-11-23T07:40:27.990Z,27.40
2018-11-23T07:42:57.053Z,29.03
2018-11-23T07:45:25.708Z,25.13
2018-11-23T07:47:54.264Z,24.27
2018-11-23T07:50:23.038Z,29.00
2018-11-23T07:52:51.606Z,30.13
2018-11-23T07:55:20.127Z,40.53
2018-11-23T07:57:48.946Z,36.53
2018-11-23T08:00:19.138Z,219.93
2018-11-23T08:02:48.436Z,45.93
2018-11-23T08:05:17.968Z,40.97
2018-11-23T08:07:46.473Z,42.17
2018-11-23T08:10:15.026Z,44.77
2018-11-23T08:12:45.010Z,47.77
2018-11-23T08:15:17.894Z,46.43
2018-11-23T08:17:46.755Z,69.73
2018-11-23T08:20:17.587Z,51.53
2018-11-23T08:22:46.735Z,50.50
2018-11-23T08:25:17.442Z,44.97
2018-11-23T08:27:47.332Z,53.00
2018-11-23T08:30:20.531Z,43.73
2018-11-23T08:32:49.060Z,38.53
2018-11-23T08:35:17.704Z,41.33
2018-11-23T08:37:46.280Z,44.87
2018-11-23T08:40:16.912Z,45.10
2018-11-23T08:42:47.612Z,36.77
2018-11-23T08:45:17.465Z,41.07
2018-11-23T08:47:46.083Z,34.93
2018-11-23T08:50:30.767Z,36.87
2018-11-23T08:52:59.563Z,38.30
2018-11-23T08:55:28.322Z,37.50
2018-11-23T08:57:57.141Z,37.13
2018-11-23T09:00:27.812Z,38.53
2018-11-23T09:02:58.430Z,37.80
2018-11-23T09:05:27.997Z,42.20
2018-11-23T09:07:57.147Z,35.73
2018-11-23T09:10:27.646Z,33.00
2018-11-23T09:12:57.762Z,41.80
2018-11-23T09:15:26.551Z,34.00
2018-11-23T09:17:55.234Z,33.97
2018-11-23T09:20:23.904Z,33.43
2018-11-23T09:22:52.484Z,36.57
2018-11-23T09:25:22.305Z,39.83
2018-11-23T09:27:51.225Z,36.83
2018-11-23T09:30:20.934Z,36.70
2018-11-23T09:32:50.019Z,41.87
2018-11-23T09:35:18.734Z,36.53
2018-11-23T09:37:48.324Z,36.90
2018-11-23T09:40:24.640Z,41.77
2018-11-23T09:42:53.543Z,42.07
2018-11-23T09:45:23.449Z,57.00
2018-11-23T09:47:53.346Z,48.27
2018-11-23T09:50:23.113Z,50.33
2018-11-23T09:52:52.966Z,53.03
2018-11-23T09:55:22.398Z,54.47
2018-11-23T09:57:51.030Z,54.40
2018-11-23T10:00:23.094Z,57.90
2018-11-23T10:02:52.908Z,70.03
2018-11-23T10:05:21.877Z,64.07
2018-11-23T10:07:52.743Z,53.40
2018-11-23T10:10:21.896Z,66.17
2018-11-23T10:12:50.564Z,67.67
2018-11-23T10:15:19.739Z,60.63
2018-11-23T10:17:48.278Z,73.53
2018-11-23T10:20:18.427Z,81.43
2018-11-23T10:22:47.452Z,78.70
2018-11-23T10:25:17.506Z,70.83
2018-11-23T10:27:46.331Z,76.23
2018-11-23T10:30:17.302Z,77.90
2018-11-23T10:32:47.069Z,84.37
2018-11-23T10:35:15.745Z,78.07
2018-11-23T10:37:45.187Z,107.97
2018-11-23T10:40:20.000Z,101.97
2018-11-23T10:42:48.599Z,97.63
2018-11-23T10:45:19.190Z,92.87
2018-11-23T10:47:48.475Z,98.77
2018-11-23T10:50:18.744Z,96.03
2018-11-23T10:52:47.413Z,115.63
2018-11-23T10:55:17.971Z,129.80
2018-11-23T10:57:46.801Z,100.57
2018-11-23T11:00:21.460Z,106.23
2018-11-23T11:02:55.966Z,104.63
2018-11-23T11:05:34.912Z,102.67
2018-11-23T11:08:04.469Z,104.97
2018-11-23T11:10:33.124Z,95.63
2018-11-23T11:13:01.818Z,104.53
2018-11-23T11:15:30.494Z,96.47
2018-11-23T11:17:59.264Z,101.60
2018-11-23T11:20:27.788Z,102.17
2018-11-23T11:22:56.436Z,96.20
2018-11-23T11:25:24.963Z,113.17
2018-11-23T11:27:53.487Z,112.23
2018-11-23T11:30:22.141Z,113.13
2018-11-23T11:32:51.019Z,110.03
2018-11-23T11:35:19.741Z,104.47
2018-11-23T11:37:48.440Z,109.70
2018-11-23T11:40:18.410Z,118.73
2018-11-23T11:42:47.137Z,122.90
2018-11-23T11:45:18.101Z,121.13
2018-11-23T11:47:47.389Z,116.60
2018-11-23T11:50:16.130Z,119.80
2018-11-23T11:52:46.306Z,129.37
2018-11-23T11:55:16.178Z,118.57
2018-11-23T11:57:45.502Z,140.47
2018-11-23T12:00:16.614Z,121.57
2018-11-23T12:02:45.297Z,108.53
2018-11-23T12:05:14.385Z,110.67
2018-11-23T12:07:43.100Z,102.27
2018-11-23T12:10:14.545Z,105.00
2018-11-23T12:12:43.072Z,105.27
2018-11-23T12:15:12.473Z,88.73
2018-11-23T12:17:41.485Z,97.23
2018-11-23T12:20:12.876Z,95.27
2018-11-23T12:22:41.531Z,98.37
2018-11-23T12:25:10.354Z,100.07
2018-11-23T12:27:38.921Z,95.67
2018-11-23T12:30:10.751Z,93.53
2018-11-23T12:32:40.016Z,115.37
2018-11-23T12:35:10.440Z,119.17
2018-11-23T12:37:40.117Z,126.23
2018-11-23T12:40:10.182Z,117.03
2018-11-23T12:42:38.934Z,107.70
2018-11-23T12:45:09.022Z,145.60
2018-11-23T12:47:37.681Z,100.17
2018-11-23T12:50:09.247Z,94.00
2018-11-23T12:52:38.014Z,95.90
2018-11-23T12:55:07.507Z,83.83
2018-11-23T12:57:36.146Z,96.17
2018-11-23T13:00:06.685Z,96.67
2018-11-23T13:02:35.402Z,89.40
2018-11-23T13:05:04.224Z,84.33
2018-11-23T13:07:33.022Z,76.80
2018-11-23T13:10:01.790Z,84.20
2018-11-23T13:12:30.367Z,86.70
2018-11-23T13:14:58.911Z,71.50
2018-11-23T13:17:27.696Z,75.67
2018-11-23T13:19:56.238Z,85.17
2018-11-23T13:22:24.946Z,80.17
2018-11-23T13:24:53.708Z,76.50
2018-11-23T13:27:22.317Z,83.77
2018-11-23T13:29:51.139Z,78.90
2018-11-23T13:32:19.768Z,88.47
2018-11-23T13:34:48.379Z,92.80
2018-11-23T13:37:17.019Z,141.27
2018-11-23T13:39:45.705Z,79.47
2018-11-23T13:42:14.183Z,110.83
2018-11-23T13:44:42.980Z,97.03
2018-11-23T13:47:11.642Z,104.20
2018-11-23T13:49:40.348Z,75.33
2018-11-23T13:52:08.816Z,72.00
2018-11-23T13:54:37.628Z,72.73
2018-11-23T13:57:06.378Z,70.43
2018-11-23T13:59:35.162Z,75.30
2018-11-23T14:02:03.710Z,69.40
2018-11-23T14:04:32.177Z,71.37
2018-11-23T14:07:00.874Z,64.33
2018-11-23T14:09:29.676Z,65.90
2018-11-23T14:11:58.183Z,60.03
2018-11-23T14:14:26.730Z,64.43
2018-11-23T14:16:55.392Z,63.57
2018-11-23T14:19:23.919Z,57.60
2018-11-23T14:21:52.577Z,72.47
2018-11-23T14:24:21.145Z,61.93
2018-11-23T14:26:49.927Z,51.53
2018-11-23T14:29:18.464Z,63.90
2018-11-23T14:31:47.139Z,57.03
2018-11-23T14:34:15.743Z,58.07
2018-11-23T14:36:44.557Z,64.70
2018-11-23T14:39:13.271Z,62.73
2018-11-23T14:41:41.817Z,83.40
2018-11-23T14:44:10.345Z,89.07
2018-11-23T14:46:39.048Z,94.00
2018-11-23T14:49:07.792Z,79.10
2018-11-23T14:51:36.661Z,69.53
2018-11-23T14:54:05.246Z,60.27
2018-11-23T14:56:33.830Z,64.70
2018-11-23T14:59:02.497Z,60.50
2018-11-23T15:01:32.374Z,59.57
2018-11-23T15:04:01.001Z,68.87
2018-11-23T15:06:29.574Z,63.87
2018-11-23T15:08:58.456Z,54.50
2018-11-23T15:11:27.100Z,60.47
2018-11-23T15:13:55.748Z,52.10
2018-11-23T15:16:24.458Z,69.40
2018-11-23T15:18:53.226Z,89.73
2018-11-23T15:21:21.765Z,85.73
2018-11-23T15:23:50.369Z,60.87
2018-11-23T15:26:19.137Z,68.00
2018-11-23T15:28:47.883Z,61.10
2018-11-23T15:31:16.609Z,66.13
2018-11-23T15:33:45.133Z,59.13
2018-11-23T15:36:13.797Z,67.07
2018-11-23T15:38:42.503Z,55.43
2018-11-23T15:41:11.046Z,54.83
2018-11-23T15:43:40.116Z,65.87
2018-11-23T15:46:08.986Z,81.27
2018-11-23T15:48:37.784Z,124.93
2018-11-23T15:51:08.222Z,55.70
2018-11-23T15:53:37.043Z,56.43
2018-11-23T15:56:05.964Z,76.30
2018-11-23T15:58:34.597Z,91.47
2018-11-23T16:01:03.769Z,87.27
2018-11-23T16:03:32.455Z,71.47
2018-11-23T16:06:01.218Z,67.17
2018-11-23T16:08:30.125Z,59.50
2018-11-23T16:10:58.615Z,64.30
2018-11-23T16:13:27.384Z,61.03
2018-11-23T16:15:56.213Z,62.50
2018-11-23T16:18:24.838Z,50.37
2018-11-23T16:20:53.325Z,57.80
2018-11-23T16:23:22.311Z,63.40
2018-11-23T16:25:51.596Z,80.00
2018-11-23T16:28:20.186Z,80.70
2018-11-23T16:30:50.314Z,68.93
2018-11-23T16:33:23.258Z,81.70
2018-11-23T16:35:51.947Z,54.53
2018-11-23T16:38:22.150Z,60.60
2018-11-23T16:40:53.633Z,62.07
2018-11-23T16:43:22.178Z,58.80
2018-11-23T16:45:50.950Z,48.43
2018-11-23T16:48:20.622Z,57.33
2018-11-23T16:50:49.154Z,56.03
2018-11-23T16:53:17.896Z,51.70
2018-11-23T16:55:46.437Z,46.13
2018-11-23T16:58:15.340Z,46.40
2018-11-23T17:00:45.425Z,55.57
2018-11-23T17:03:15.773Z,41.33
2018-11-23T17:05:47.190Z,45.80
2018-11-23T17:08:15.777Z,43.23
2018-11-23T17:10:44.363Z,38.80
2018-11-23T17:13:13.032Z,37.73
2018-11-23T17:15:41.664Z,40.80
2018-11-23T17:18:10.557Z,32.53
2018-11-23T17:20:39.817Z,38.30
2018-11-23T17:23:09.457Z,60.43
2018-11-23T17:25:38.008Z,57.07
2018-11-23T17:28:07.740Z,42.43
2018-11-23T17:30:37.149Z,42.67
2018-11-23T17:33:06.034Z,49.80
2018-11-23T17:35:34.633Z,50.57
2018-11-23T17:38:03.244Z,57.23
2018-11-23T17:40:33.772Z,64.93
2018-11-23T17:43:02.304Z,51.57
2018-11-23T17:45:32.207Z,72.23
2018-11-23T17:48:01.066Z,60.23
2018-11-23T17:50:31.139Z,73.40
2018-11-23T17:53:00.238Z,67.17
2018-11-23T17:55:29.011Z,74.33
2018-11-23T17:57:57.900Z,66.50
2018-11-23T18:00:28.034Z,59.40
2018-11-23T18:02:57.242Z,58.13
2018-11-23T18:05:26.623Z,64.37
2018-11-23T18:07:55.323Z,72.90
2018-11-23T18:10:26.302Z,66.60
2018-11-23T18:12:55.648Z,60.47
2018-11-23T18:15:25.467Z,77.00
2018-11-23T18:17:54.982Z,64.07
2018-11-23T18:20:24.670Z,71.53
2018-11-23T18:22:54.098Z,87.73
2018-11-23T18:25:24.349Z,83.90
2018-11-23T18:27:58.224Z,107.70
2018-11-23T18:30:27.016Z,98.27
2018-11-23T18:32:55.722Z,85.70
2018-11-23T18:35:24.388Z,70.93
2018-11-23T18:37:52.961Z,116.53
2018-11-23T18:40:21.552Z,101.43
2018-11-23T18:42:50.097Z,116.43
2018-11-23T18:45:18.765Z,116.03
2018-11-23T18:47:47.440Z,111.93
2018-11-23T18:50:17.045Z,101.43
2018-11-23T18:52:45.733Z,89.63
2018-11-23T18:55:18.163Z,112.03
2018-11-23T18:57:43.537Z,103.47
2018-11-23T19:00:15.097Z,241.23
2018-11-23T19:02:45.034Z,129.50
2018-11-23T19:05:17.104Z,101.20
2018-11-23T19:07:45.786Z,110.03
2018-11-23T19:10:14.738Z,98.87
2018-11-23T19:12:43.365Z,83.57
2018-11-23T19:15:13.378Z,76.97
2018-11-23T19:17:41.968Z,105.87
2018-11-23T19:20:12.369Z,85.03
2018-11-23T19:22:41.857Z,61.47
2018-11-23T19:25:10.511Z,86.40
2018-11-23T19:27:39.121Z,73.93
2018-11-23T19:30:10.521Z,71.73
2018-11-23T19:32:39.106Z,67.33
2018-11-23T19:35:08.104Z,71.03
2018-11-23T19:37:36.769Z,55.80
2018-11-23T19:40:07.896Z,48.77
2018-11-23T19:42:36.601Z,59.90
2018-11-23T19:45:06.472Z,58.70
2018-11-23T19:47:35.001Z,76.07
2018-11-23T19:50:03.749Z,61.80
2018-11-23T19:52:32.308Z,64.27
2018-11-23T19:55:00.848Z,67.47
2018-11-23T19:57:29.557Z,65.07
2018-11-23T19:59:58.257Z,53.33
2018-11-23T20:02:26.857Z,63.73
2018-11-23T20:04:55.555Z,63.50
2018-11-23T20:07:24.146Z,174.20
2018-11-23T20:09:52.707Z,82.73
2018-11-23T20:12:21.305Z,47.40
2018-11-23T20:14:49.840Z,51.10
2018-11-23T20:17:18.351Z,80.10
2018-11-23T20:19:47.122Z,127.07
2018-11-23T20:22:15.912Z,141.47
2018-11-23T20:24:44.644Z,69.30
2018-11-23T20:27:13.386Z,76.63
2018-11-23T20:29:41.911Z,128.70
2018-11-23T20:32:10.451Z,91.03
2018-11-23T20:34:39.278Z,122.00
2018-11-23T20:37:07.940Z,112.87
2018-11-23T20:39:36.616Z,65.60
2018-11-23T20:42:05.802Z,111.30
2018-11-23T20:44:34.581Z,41.03
2018-11-23T20:47:03.241Z,73.37
2018-11-23T20:49:32.088Z,54.80
2018-11-23T20:52:00.805Z,74.87
2018-11-23T20:54:29.323Z,141.97
2018-11-23T20:56:57.873Z,89.83
2018-11-23T20:59:26.432Z,70.27
2018-11-23T21:01:55.064Z,69.10
2018-11-23T21:04:23.677Z,151.67
2018-11-23T21:06:52.221Z,42.40
2018-11-23T21:09:20.750Z,35.30
2018-11-23T21:11:49.384Z,39.87
2018-11-23T21:14:17.918Z,39.40
2018-11-23T21:16:46.519Z,58.17
2018-11-23T21:19:15.258Z,51.53
2018-11-23T21:21:43.814Z,27.33
2018-11-23T21:24:12.628Z,24.37
2018-11-23T21:26:41.235Z,53.43
2018-11-23T21:29:10.033Z,49.67
2018-11-23T21:31:38.683Z,36.10
2018-11-23T21:34:07.405Z,31.70
2018-11-23T21:36:36.023Z,39.47
2018-11-23T21:39:13.544Z,31.10
2018-11-23T21:41:35.667Z,25.77
2018-11-23T21:44:04.265Z,40.40
2018-11-23T21:46:32.830Z,28.73
2018-11-23T21:49:01.703Z,27.43
2018-11-23T21:51:30.368Z,33.30
2018-11-23T21:53:58.902Z,36.97
2018-11-23T21:56:27.617Z,35.57
2018-11-23T21:58:56.229Z,34.57
2018-11-23T22:01:25.006Z,49.43
2018-11-23T22:03:53.674Z,43.27
2018-11-23T22:06:22.413Z,35.77
2018-11-23T22:08:50.952Z,37.60
2018-11-23T22:11:19.672Z,50.00
2018-11-23T22:13:48.356Z,82.03
2018-11-23T22:16:16.890Z,71.20
2018-11-23T22:18:45.477Z,46.03
2018-11-23T22:21:14.238Z,21.87
2018-11-23T22:23:42.768Z,21.57
2018-11-23T22:26:11.355Z,27.50
2018-11-23T22:28:40.205Z,20.73
2018-11-23T22:31:08.757Z,21.17
2018-11-23T22:33:37.401Z,35.57
2018-11-23T22:36:06.259Z,22.90
2018-11-23T22:38:34.929Z,26.93
2018-11-23T22:41:03.644Z,22.33
2018-11-23T22:43:32.334Z,19.80
2018-11-23T22:46:00.996Z,28.87
2018-11-23T22:48:29.632Z,25.70
2018-11-23T22:50:58.425Z,26.10
2018-11-23T22:53:27.235Z,25.43
2018-11-23T22:55:55.825Z,27.30
2018-11-23T22:58:24.514Z,16.83
2018-11-23T23:00:57.442Z,21.67
2018-11-23T23:03:26.220Z,26.90
2018-11-23T23:05:55.044Z,18.00
2018-11-23T23:08:23.636Z,15.77
2018-11-23T23:10:52.250Z,15.53
2018-11-23T23:13:20.816Z,15.83
2018-11-23T23:15:49.410Z,14.70
2018-11-23T23:18:18.059Z,16.63
2018-11-23T23:20:46.853Z,19.97
2018-11-23T23:23:15.598Z,14.77
2018-11-23T23:25:44.117Z,13.90
2018-11-23T23:28:12.674Z,18.50
2018-11-23T23:30:41.270Z,13.73
2018-11-23T23:33:09.867Z,16.90
2018-11-23T23:35:38.438Z,19.17
2018-11-23T23:38:07.209Z,14.23
2018-11-23T23:40:35.763Z,14.40
2018-11-23T23:43:04.398Z,15.70
2018-11-23T23:45:33.097Z,13.50
2018-11-23T23:48:01.632Z,18.50
2018-11-23T23:50:30.189Z,30.50
2018-11-23T23:52:59.046Z,17.40
2018-11-23T23:55:27.605Z,14.00
2018-11-23T23:57:56.284Z,13.47
